Gillette-Campbell County, WY

5:01 AM MDT on July 29, 2014 (GMT -0600)
Gillette-Campbell County (KGCC) Elev 4364 ft | 44.34 °N, 105.54 °W | Change Station

Current weather conditions updated 8 minutes ago

Overcast
Overcast
62 °F
Feels Like 62 °F
N
6
Wind Variable Wind from SW

Today is forecast to be Much Cooler than yesterday.

Today
High -- | Low -- °F
--% Chance of Precip.
Yesterday
High -- | Low -- °F
Precip. -- in
5:46 AM 8:30 PM
Waxing Crescent, 6% visible
Pressure 30.11 in
Visibility 10.0 miles
Clouds Few 7000 ft
Mostly Cloudy 8000 ft
Overcast 10000 ft
Dew Point 58 °F
Humidity 86%
Rainfall 0.20 in
Snow Depth Not available.
UV 0 out of 12
Pollen 6.60 out of 12
Air Quality Not available.
Flu Activity Not available.
METAR KGCC 291053Z AUTO 22005KT 10SM FEW070 BKN080 OVC100 17/14 A3026 RMK AO2 RAE38 SLP196 P0001 T01670144 $

More Conditions Fewer Conditions

Pressure 30.11 in
Visibility 10.0 miles
Clouds Few 7000 ft
Mostly Cloudy 8000 ft
Overcast 10000 ft
Dew Point 58 °F
Humidity 86%
Rainfall 0.20 in
Snow Depth Not available.
UV 0 out of 12
Pollen 6.60 out of 12
Air Quality Not available.
Flu Activity Not available.
METAR KGCC 291053Z AUTO 22005KT 10SM FEW070 BKN080 OVC100 17/14 A3026 RMK AO2 RAE38 SLP196 P0001 T01670144 $

More Conditions Fewer Conditions

10-Day Weather Forecast

Almanac

Astronomy

Jul. 29, 2014 Rise Set
Actual Time 5:46 AM MDT 8:30 PM MDT
Civil Twilight 5:12 AM MDT 9:03 PM MDT
Nautical Twilight 4:30 AM MDT 9:46 PM MDT
Astronomical Twilight 3:40 AM MDT 10:34 PM MDT
Moon 8:33 AM MDT 9:35 PM MDT
Length of Visible Light 15h 51m
Length of Day
14h 44m
Tomorrow will be 2m 16s shorter.
Waxing Crescent, 6% of the Moon is Illuminated
Today
Waxing Crescent
Aug 3
First Quarter
Aug 10
Full
Aug 17
Last Quarter
Aug 25
New

Today's Extremes

State Highs State Lows

Community

WunderPhotos

Upload Photos

1,738,685 photos uploaded!

Nearby

Snow Depth

Station Depth Elevation
Casper Mountain 0 in 7850 ft
Reno Hill 0 in 8500 ft
Windy Peak 0 in 7900 ft
Sand Lake 0 in 10050 ft
Brooklyn Lake 0 in 10220 ft

Earthquake Activity

City Distance Mag. Time & Date
No recent earthquake activity has been reported nearby.
Minimum magnitude displayed is 2.5.

Coastal Water Temperatures

Place Temperature
No Stations Reporting

Nearby Weather Stations

Station Location Temp. Dew Point Humidity Wind Precip. Elev Updated Type
South Gillette, Swanson Road, Gillette, WY 62.2 °F 58 °F 87% East  at  3.8 mph 0.04 in / hr 4580 ft 5:01 AM MDT Rapid Fire
Crestview, Gillette, WY 59.9 °F 60 °F 99% South  at  3.2 mph 0.05 in / hr 4685 ft 5:01 AM MDT Rapid Fire
South Gillette, HWY 50, Gillette, WY 58.4 °F 56 °F 93% South  at  1.0 mph 0.00 in / hr 4840 ft 4:51 AM MDT Normal
UNION CHAPEL FAIRVIEW, GILLETTE, WY 60.1 °F 58 °F 92% ESE  at  6.0 mph - / hr 4593 ft 4:54 AM MDT Normal
RAWS ECHETA WY, Gillette, WY 65 °F 56 °F 73% SE  at  18 mph 0.00 in / hr 4396 ft 3:51 AM MDT MADIS

Show More Stations Show Fewer Stations